logo tempoitalia

Diretta Meteo Tirgu Mures, Romanialunedì 31 agosto ore 08:00

Mappa
Sereno 17 °C Sereno 24 Ore: T.min 15 T.max 30
Ponente Est Km/h 7.4 Punto di rugiada: 16 °C Umidità: 93% Visibilità: 10 Km
Il sole sorge alle: 06:40 Il sole tramonta alle: 20:03
31 Agosto 2026 08:00 tempo osservato: Sereno Sereno 17 93 1018 vento: Nord E 7.4
31 Agosto 2026 07:30 tempo osservato: Sereno Sereno 16 93 1018 vento: Nord E 7.4
31 Agosto 2026 07:00 tempo osservato: Sereno Sereno 15 93 1018 vento: Nord N 5.5
31 Agosto 2026 06:30 tempo osservato: Sereno Sereno 15 93 1018 vento: Nord E 7.4
31 Agosto 2026 06:00 tempo osservato: Sereno Sereno 15 100 1018 vento: Nord N 5.5
31 Agosto 2026 05:30 tempo osservato: Sereno Sereno 16 93 1018 vento: Nord N 5.5
31 Agosto 2026 05:00 tempo osservato: Sereno Sereno 16 93 1018 vento: Nord E 9.3
31 Agosto 2026 04:30 tempo osservato: Sereno Sereno 17 93 1018 vento: Nord E 9.3
31 Agosto 2026 04:00 tempo osservato: Sereno Sereno 16 93 1018 vento: Nord E 7.4
31 Agosto 2026 03:30 tempo osservato: Sereno Sereno 17 88 1018 vento: Nord E 7.4
31 Agosto 2026 03:00 tempo osservato: Sereno Sereno 17 93 1018 vento: Nord E 7.4
31 Agosto 2026 02:30 tempo osservato: Sereno Sereno 17 93 1018 vento: Nord E 7.4
31 Agosto 2026 02:00 tempo osservato: Sereno Sereno 17 93 1018 vento: Nord E 7.4
31 Agosto 2026 01:30 tempo osservato: Sereno Sereno 18 88 1018 vento: Nord N 5.5
31 Agosto 2026 01:00 tempo osservato: Sereno Sereno 18 88 1018 vento: Nord E 7.4
31 Agosto 2026 00:30 tempo osservato: Sereno Sereno 19 82 1017 vento: Nord E 7.4
31 Agosto 2026 00:00 tempo osservato: Sereno Sereno 18 88 1017 vento: Nord N 3.7
30 Agosto 2026 23:30 tempo osservato: Sereno Sereno 20 82 1017 vento: Nord N 3.7
30 Agosto 2026 23:00 tempo osservato: Sereno Sereno 20 82 1017 vento: Nord N 1.8
30 Agosto 2026 22:30 tempo osservato: Sereno Sereno 21 82 1017 vento: Nord N 0
30 Agosto 2026 22:00 tempo osservato: Sereno Sereno 22 73 1017 vento: Nord N 3.7
30 Agosto 2026 21:30 tempo osservato: Sereno Sereno 23 68 1017 vento: Nord NE 7.4
30 Agosto 2026 21:00 tempo osservato: Sereno Sereno 24 64 1016 vento: Nord N 3.7
30 Agosto 2026 20:30 tempo osservato: Sereno Sereno 25 65 1016 vento: Nord N 5.5
30 Agosto 2026 20:00 tempo osservato: Sereno Sereno 25 69 1015 vento: Nord SO 7.4
30 Agosto 2026 19:30 tempo osservato: Poco Nuvoloso Poco Nuvoloso 26 65 1015 vento: Nord O/SO 9.3
30 Agosto 2026 19:00 tempo osservato: Poco Nuvoloso Poco Nuvoloso 30 51 1015 vento: Nord SO 7.4
30 Agosto 2026 18:30 tempo osservato: Poco Nuvoloso Poco Nuvoloso 30 51 1015 vento: Nord SO 7.4
30 Agosto 2026 18:00 tempo osservato: Poco Nuvoloso Poco Nuvoloso 30 51 1015 vento: Nord SO 9.3
30 Agosto 2026 17:30 tempo osservato: Poco Nuvoloso Poco Nuvoloso 30 51 1015 vento: Nord N 5.5
30 Agosto 2026 17:00 tempo osservato: Poco Nuvoloso Poco Nuvoloso 30 51 1016 vento: Nord N 5.5
30 Agosto 2026 16:30 tempo osservato: Poco Nuvoloso Poco Nuvoloso 29 51 1016 vento: Nord N 5.5
30 Agosto 2026 16:00 tempo osservato: Poco Nuvoloso Poco Nuvoloso 29 51 1016 vento: Nord O/NO 7.4
30 Agosto 2026 15:30 tempo osservato: Poco Nuvoloso Poco Nuvoloso 29 51 1016 vento: Nord N 5.5
30 Agosto 2026 15:00 tempo osservato: Poco Nuvoloso Poco Nuvoloso 30 48 1016 vento: Nord N 3.7
30 Agosto 2026 14:30 tempo osservato: Poco Nuvoloso Poco Nuvoloso 30 48 1016 vento: Nord N 5.5
30 Agosto 2026 14:00 tempo osservato: Poco Nuvoloso Poco Nuvoloso 29 51 1017 vento: Nord S 7.4
30 Agosto 2026 13:30 tempo osservato: Poco Nuvoloso Poco Nuvoloso 29 54 1017 vento: Nord N 5.5
30 Agosto 2026 13:00 tempo osservato: Sereno Sereno 28 54 1017 vento: Nord N 5.5
30 Agosto 2026 12:30 tempo osservato: Sereno Sereno 27 57 1017 vento: Nord N 5.5
30 Agosto 2026 12:00 tempo osservato: Sereno Sereno 27 54 1018 vento: Nord N 3.7
30 Agosto 2026 11:30 tempo osservato: Sereno Sereno 25 61 1018 vento: Nord N 5.5
30 Agosto 2026 11:00 tempo osservato: Sereno Sereno 26 57 1018 vento: Nord N 3.7
30 Agosto 2026 10:30 tempo osservato: Sereno Sereno 25 65 1018 vento: Nord N 1.8
30 Agosto 2026 10:00 tempo osservato: Sereno Sereno 22 73 1018 vento: Nord N 1.8
30 Agosto 2026 09:30 tempo osservato: Poco Nuvoloso Poco Nuvoloso 22 73 1018 vento: Nord N 3.7
30 Agosto 2026 09:00 tempo osservato: Poco Nuvoloso Poco Nuvoloso 19 82 1018 vento: Nord N 5.5